sensor_id;sensor_type;location;lat;lon;timestamp;P1;durP1;ratioP1;P2;durP2;ratioP2
76900;SDS011;65859;43.020;25.096;2023-04-25T00:01:53;18.55;;;12.93;;
76900;SDS011;65859;43.020;25.096;2023-04-25T00:04:19;17.23;;;13.40;;
76900;SDS011;65859;43.020;25.096;2023-04-25T00:06:46;16.65;;;13.15;;
76900;SDS011;65859;43.020;25.096;2023-04-25T00:09:13;16.83;;;14.55;;
76900;SDS011;65859;43.020;25.096;2023-04-25T00:11:40;18.95;;;16.35;;
76900;SDS011;65859;43.020;25.096;2023-04-25T00:14:06;19.70;;;15.70;;
76900;SDS011;65859;43.020;25.096;2023-04-25T00:16:33;20.27;;;16.27;;
76900;SDS011;65859;43.020;25.096;2023-04-25T00:19:00;18.83;;;15.90;;
76900;SDS011;65859;43.020;25.096;2023-04-25T00:21:29;21.40;;;15.63;;
76900;SDS011;65859;43.020;25.096;2023-04-25T00:23:56;16.17;;;12.93;;
76900;SDS011;65859;43.020;25.096;2023-04-25T00:26:23;15.30;;;12.90;;
76900;SDS011;65859;43.020;25.096;2023-04-25T00:28:50;14.82;;;13.15;;
76900;SDS011;65859;43.020;25.096;2023-04-25T00:31:16;16.75;;;11.88;;
76900;SDS011;65859;43.020;25.096;2023-04-25T00:33:42;12.95;;;11.60;;
76900;SDS011;65859;43.020;25.096;2023-04-25T00:36:09;14.45;;;12.50;;
76900;SDS011;65859;43.020;25.096;2023-04-25T00:38:35;13.55;;;11.75;;
76900;SDS011;65859;43.020;25.096;2023-04-25T00:41:04;12.60;;;10.88;;
76900;SDS011;65859;43.020;25.096;2023-04-25T00:43:31;13.32;;;11.25;;
76900;SDS011;65859;43.020;25.096;2023-04-25T00:45:59;14.23;;;12.23;;
76900;SDS011;65859;43.020;25.096;2023-04-25T00:48:26;12.73;;;11.38;;
76900;SDS011;65859;43.020;25.096;2023-04-25T00:50:53;16.50;;;11.23;;
76900;SDS011;65859;43.020;25.096;2023-04-25T00:53:25;13.48;;;11.68;;
76900;SDS011;65859;43.020;25.096;2023-04-25T00:55:52;14.95;;;12.65;;
76900;SDS011;65859;43.020;25.096;2023-04-25T00:58:20;14.75;;;12.05;;
76900;SDS011;65859;43.020;25.096;2023-04-25T01:00:47;13.50;;;10.65;;
76900;SDS011;65859;43.020;25.096;2023-04-25T01:03:16;14.02;;;11.43;;
76900;SDS011;65859;43.020;25.096;2023-04-25T01:05:44;15.27;;;12.23;;
76900;SDS011;65859;43.020;25.096;2023-04-25T01:08:11;13.45;;;11.55;;
76900;SDS011;65859;43.020;25.096;2023-04-25T01:10:38;14.38;;;11.38;;
76900;SDS011;65859;43.020;25.096;2023-04-25T01:13:05;14.82;;;11.38;;
76900;SDS011;65859;43.020;25.096;2023-04-25T01:15:31;13.13;;;11.52;;
76900;SDS011;65859;43.020;25.096;2023-04-25T01:17:58;15.20;;;13.13;;
76900;SDS011;65859;43.020;25.096;2023-04-25T01:20:26;17.77;;;12.68;;
76900;SDS011;65859;43.020;25.096;2023-04-25T01:22:54;13.88;;;11.43;;
76900;SDS011;65859;43.020;25.096;2023-04-25T01:25:22;13.27;;;11.57;;
76900;SDS011;65859;43.020;25.096;2023-04-25T01:27:49;14.68;;;11.40;;
76900;SDS011;65859;43.020;25.096;2023-04-25T01:30:16;14.70;;;12.18;;
76900;SDS011;65859;43.020;25.096;2023-04-25T01:32:42;13.85;;;12.13;;
76900;SDS011;65859;43.020;25.096;2023-04-25T01:35:09;14.60;;;12.65;;
76900;SDS011;65859;43.020;25.096;2023-04-25T01:40:04;14.88;;;12.20;;
76900;SDS011;65859;43.020;25.096;2023-04-25T01:42:34;13.88;;;11.90;;
76900;SDS011;65859;43.020;25.096;2023-04-25T01:45:02;15.35;;;12.93;;
76900;SDS011;65859;43.020;25.096;2023-04-25T01:47:29;14.52;;;12.65;;
76900;SDS011;65859;43.020;25.096;2023-04-25T01:49:56;16.55;;;12.02;;
76900;SDS011;65859;43.020;25.096;2023-04-25T01:52:22;15.68;;;12.00;;
76900;SDS011;65859;43.020;25.096;2023-04-25T01:54:49;15.82;;;12.32;;
76900;SDS011;65859;43.020;25.096;2023-04-25T01:57:17;16.15;;;12.20;;
76900;SDS011;65859;43.020;25.096;2023-04-25T01:59:43;15.75;;;11.85;;
76900;SDS011;65859;43.020;25.096;2023-04-25T02:02:10;15.05;;;12.05;;
76900;SDS011;65859;43.020;25.096;2023-04-25T02:04:37;12.65;;;11.20;;
76900;SDS011;65859;43.020;25.096;2023-04-25T02:07:03;15.07;;;12.65;;
76900;SDS011;65859;43.020;25.096;2023-04-25T02:09:30;17.00;;;13.32;;
76900;SDS011;65859;43.020;25.096;2023-04-25T02:11:56;14.32;;;12.18;;
76900;SDS011;65859;43.020;25.096;2023-04-25T02:14:22;16.17;;;13.65;;
76900;SDS011;65859;43.020;25.096;2023-04-25T02:16:49;13.55;;;11.77;;
76900;SDS011;65859;43.020;25.096;2023-04-25T02:19:16;15.00;;;12.30;;
76900;SDS011;65859;43.020;25.096;2023-04-25T02:21:42;15.05;;;12.63;;
76900;SDS011;65859;43.020;25.096;2023-04-25T02:24:09;14.43;;;12.75;;
76900;SDS011;65859;43.020;25.096;2023-04-25T02:26:35;16.67;;;14.63;;
76900;SDS011;65859;43.020;25.096;2023-04-25T02:29:03;16.00;;;14.20;;
76900;SDS011;65859;43.020;25.096;2023-04-25T02:31:30;19.30;;;14.70;;
76900;SDS011;65859;43.020;25.096;2023-04-25T02:33:57;17.13;;;14.43;;
76900;SDS011;65859;43.020;25.096;2023-04-25T02:36:23;13.48;;;11.80;;
76900;SDS011;65859;43.020;25.096;2023-04-25T02:38:49;20.50;;;16.10;;
76900;SDS011;65859;43.020;25.096;2023-04-25T02:41:15;22.05;;;17.25;;
76900;SDS011;65859;43.020;25.096;2023-04-25T02:43:42;20.25;;;16.42;;
76900;SDS011;65859;43.020;25.096;2023-04-25T02:46:08;17.98;;;14.70;;
76900;SDS011;65859;43.020;25.096;2023-04-25T02:48:34;17.88;;;14.57;;
76900;SDS011;65859;43.020;25.096;2023-04-25T02:51:01;16.55;;;13.68;;
76900;SDS011;65859;43.020;25.096;2023-04-25T02:53:28;19.98;;;15.45;;
76900;SDS011;65859;43.020;25.096;2023-04-25T02:55:54;17.92;;;14.65;;
76900;SDS011;65859;43.020;25.096;2023-04-25T02:58:23;19.83;;;14.63;;
76900;SDS011;65859;43.020;25.096;2023-04-25T03:00:51;29.27;;;20.60;;
76900;SDS011;65859;43.020;25.096;2023-04-25T03:03:17;32.22;;;21.30;;
76900;SDS011;65859;43.020;25.096;2023-04-25T03:05:46;19.92;;;15.60;;
76900;SDS011;65859;43.020;25.096;2023-04-25T03:08:14;15.25;;;11.90;;
76900;SDS011;65859;43.020;25.096;2023-04-25T03:10:40;12.10;;;10.70;;
76900;SDS011;65859;43.020;25.096;2023-04-25T03:13:06;13.63;;;11.20;;
76900;SDS011;65859;43.020;25.096;2023-04-25T03:15:32;11.82;;;10.60;;
76900;SDS011;65859;43.020;25.096;2023-04-25T03:18:00;12.30;;;10.48;;
76900;SDS011;65859;43.020;25.096;2023-04-25T03:20:27;12.52;;;11.20;;
76900;SDS011;65859;43.020;25.096;2023-04-25T03:22:53;14.07;;;11.77;;
76900;SDS011;65859;43.020;25.096;2023-04-25T03:25:19;14.10;;;12.07;;
76900;SDS011;65859;43.020;25.096;2023-04-25T03:27:46;14.57;;;12.98;;
76900;SDS011;65859;43.020;25.096;2023-04-25T03:30:12;14.13;;;10.93;;
76900;SDS011;65859;43.020;25.096;2023-04-25T03:32:40;17.95;;;11.50;;
76900;SDS011;65859;43.020;25.096;2023-04-25T03:35:06;12.60;;;10.15;;
76900;SDS011;65859;43.020;25.096;2023-04-25T03:37:33;10.40;;;9.30;;
76900;SDS011;65859;43.020;25.096;2023-04-25T03:39:59;9.43;;;8.43;;
76900;SDS011;65859;43.020;25.096;2023-04-25T03:42:25;10.80;;;9.60;;
76900;SDS011;65859;43.020;25.096;2023-04-25T03:44:52;12.00;;;10.65;;
76900;SDS011;65859;43.020;25.096;2023-04-25T03:47:18;12.88;;;9.80;;
76900;SDS011;65859;43.020;25.096;2023-04-25T03:49:44;12.85;;;10.18;;
76900;SDS011;65859;43.020;25.096;2023-04-25T03:52:11;16.17;;;10.27;;
76900;SDS011;65859;43.020;25.096;2023-04-25T03:54:37;11.77;;;10.40;;
76900;SDS011;65859;43.020;25.096;2023-04-25T03:57:03;12.65;;;8.80;;
76900;SDS011;65859;43.020;25.096;2023-04-25T03:59:30;13.18;;;10.73;;
76900;SDS011;65859;43.020;25.096;2023-04-25T04:01:56;10.82;;;8.82;;
76900;SDS011;65859;43.020;25.096;2023-04-25T04:04:24;12.77;;;11.18;;
76900;SDS011;65859;43.020;25.096;2023-04-25T04:06:50;8.50;;;7.60;;
76900;SDS011;65859;43.020;25.096;2023-04-25T04:09:17;10.05;;;9.02;;
76900;SDS011;65859;43.020;25.096;2023-04-25T04:11:45;11.63;;;9.77;;
76900;SDS011;65859;43.020;25.096;2023-04-25T04:14:11;12.65;;;9.70;;
76900;SDS011;65859;43.020;25.096;2023-04-25T04:16:38;11.77;;;8.65;;
76900;SDS011;65859;43.020;25.096;2023-04-25T04:19:04;11.60;;;9.63;;
76900;SDS011;65859;43.020;25.096;2023-04-25T04:21:31;11.20;;;9.65;;
76900;SDS011;65859;43.020;25.096;2023-04-25T04:23:58;13.10;;;10.00;;
76900;SDS011;65859;43.020;25.096;2023-04-25T04:26:25;17.30;;;14.02;;
76900;SDS011;65859;43.020;25.096;2023-04-25T04:28:52;19.58;;;14.80;;
76900;SDS011;65859;43.020;25.096;2023-04-25T04:31:20;17.50;;;13.30;;
76900;SDS011;65859;43.020;25.096;2023-04-25T04:33:46;16.60;;;11.52;;
76900;SDS011;65859;43.020;25.096;2023-04-25T04:36:15;25.10;;;15.35;;
76900;SDS011;65859;43.020;25.096;2023-04-25T04:38:45;19.70;;;14.68;;
76900;SDS011;65859;43.020;25.096;2023-04-25T04:41:11;26.25;;;17.52;;
76900;SDS011;65859;43.020;25.096;2023-04-25T04:43:38;16.25;;;8.95;;
76900;SDS011;65859;43.020;25.096;2023-04-25T04:46:04;12.35;;;9.15;;
76900;SDS011;65859;43.020;25.096;2023-04-25T04:48:31;10.35;;;9.25;;
76900;SDS011;65859;43.020;25.096;2023-04-25T04:50:59;11.10;;;8.00;;
76900;SDS011;65859;43.020;25.096;2023-04-25T04:53:26;10.57;;;7.85;;
76900;SDS011;65859;43.020;25.096;2023-04-25T04:55:53;12.57;;;10.88;;
76900;SDS011;65859;43.020;25.096;2023-04-25T04:58:19;18.80;;;13.00;;
76900;SDS011;65859;43.020;25.096;2023-04-25T05:00:45;12.93;;;10.65;;
76900;SDS011;65859;43.020;25.096;2023-04-25T05:03:12;9.23;;;7.13;;
76900;SDS011;65859;43.020;25.096;2023-04-25T05:05:38;15.43;;;11.23;;
76900;SDS011;65859;43.020;25.096;2023-04-25T05:08:07;13.20;;;9.48;;
76900;SDS011;65859;43.020;25.096;2023-04-25T05:10:33;10.30;;;8.40;;
76900;SDS011;65859;43.020;25.096;2023-04-25T05:12:59;7.47;;;6.22;;
76900;SDS011;65859;43.020;25.096;2023-04-25T05:15:26;11.88;;;8.40;;
76900;SDS011;65859;43.020;25.096;2023-04-25T05:17:52;22.90;;;17.08;;
76900;SDS011;65859;43.020;25.096;2023-04-25T05:20:18;22.13;;;13.38;;
76900;SDS011;65859;43.020;25.096;2023-04-25T05:22:45;8.43;;;5.68;;
76900;SDS011;65859;43.020;25.096;2023-04-25T05:25:11;7.88;;;6.15;;
76900;SDS011;65859;43.020;25.096;2023-04-25T05:27:37;7.07;;;5.45;;
76900;SDS011;65859;43.020;25.096;2023-04-25T05:30:04;7.50;;;5.50;;
76900;SDS011;65859;43.020;25.096;2023-04-25T05:32:31;5.22;;;4.43;;
76900;SDS011;65859;43.020;25.096;2023-04-25T05:34:57;5.85;;;4.90;;
76900;SDS011;65859;43.020;25.096;2023-04-25T05:37:24;29.60;;;23.35;;
76900;SDS011;65859;43.020;25.096;2023-04-25T05:39:52;24.55;;;17.40;;
76900;SDS011;65859;43.020;25.096;2023-04-25T05:42:19;33.25;;;23.20;;
76900;SDS011;65859;43.020;25.096;2023-04-25T05:44:45;29.80;;;19.80;;
76900;SDS011;65859;43.020;25.096;2023-04-25T05:47:12;6.63;;;5.13;;
76900;SDS011;65859;43.020;25.096;2023-04-25T05:49:38;19.50;;;15.98;;
76900;SDS011;65859;43.020;25.096;2023-04-25T05:52:04;13.60;;;8.35;;
76900;SDS011;65859;43.020;25.096;2023-04-25T05:54:31;11.15;;;8.40;;
76900;SDS011;65859;43.020;25.096;2023-04-25T05:56:57;6.75;;;5.82;;
76900;SDS011;65859;43.020;25.096;2023-04-25T05:59:23;8.32;;;5.65;;
76900;SDS011;65859;43.020;25.096;2023-04-25T06:01:50;11.38;;;6.93;;
76900;SDS011;65859;43.020;25.096;2023-04-25T06:04:16;8.02;;;7.22;;
76900;SDS011;65859;43.020;25.096;2023-04-25T06:06:43;11.40;;;7.05;;
76900;SDS011;65859;43.020;25.096;2023-04-25T06:09:09;10.50;;;9.10;;
76900;SDS011;65859;43.020;25.096;2023-04-25T06:11:40;13.10;;;10.80;;
76900;SDS011;65859;43.020;25.096;2023-04-25T06:14:06;9.77;;;8.77;;
76900;SDS011;65859;43.020;25.096;2023-04-25T06:16:33;25.73;;;17.83;;
76900;SDS011;65859;43.020;25.096;2023-04-25T06:18:59;15.43;;;11.38;;
76900;SDS011;65859;43.020;25.096;2023-04-25T06:21:25;15.90;;;10.73;;
76900;SDS011;65859;43.020;25.096;2023-04-25T06:23:52;15.93;;;11.90;;
76900;SDS011;65859;43.020;25.096;2023-04-25T06:26:19;14.25;;;11.50;;
76900;SDS011;65859;43.020;25.096;2023-04-25T06:28:45;5.00;;;4.50;;
76900;SDS011;65859;43.020;25.096;2023-04-25T06:31:11;8.02;;;6.15;;
76900;SDS011;65859;43.020;25.096;2023-04-25T06:33:38;11.40;;;7.80;;
76900;SDS011;65859;43.020;25.096;2023-04-25T06:36:04;9.13;;;6.82;;
76900;SDS011;65859;43.020;25.096;2023-04-25T06:38:31;8.85;;;6.75;;
76900;SDS011;65859;43.020;25.096;2023-04-25T06:40:57;13.32;;;7.85;;
76900;SDS011;65859;43.020;25.096;2023-04-25T06:43:25;7.18;;;6.20;;
76900;SDS011;65859;43.020;25.096;2023-04-25T06:45:51;13.50;;;9.63;;
76900;SDS011;65859;43.020;25.096;2023-04-25T06:48:18;9.45;;;6.78;;
76900;SDS011;65859;43.020;25.096;2023-04-25T06:50:44;10.07;;;7.47;;
76900;SDS011;65859;43.020;25.096;2023-04-25T06:53:10;7.68;;;5.43;;
76900;SDS011;65859;43.020;25.096;2023-04-25T06:55:37;10.35;;;7.55;;
76900;SDS011;65859;43.020;25.096;2023-04-25T06:58:04;5.20;;;4.30;;
76900;SDS011;65859;43.020;25.096;2023-04-25T07:00:30;6.35;;;5.25;;
76900;SDS011;65859;43.020;25.096;2023-04-25T07:02:57;12.63;;;8.43;;
76900;SDS011;65859;43.020;25.096;2023-04-25T07:05:23;9.10;;;4.80;;
76900;SDS011;65859;43.020;25.096;2023-04-25T07:07:50;7.25;;;5.47;;
76900;SDS011;65859;43.020;25.096;2023-04-25T07:10:16;14.07;;;6.18;;
76900;SDS011;65859;43.020;25.096;2023-04-25T07:12:42;8.45;;;5.10;;
76900;SDS011;65859;43.020;25.096;2023-04-25T07:15:10;7.70;;;4.10;;
76900;SDS011;65859;43.020;25.096;2023-04-25T07:17:37;8.10;;;5.40;;
76900;SDS011;65859;43.020;25.096;2023-04-25T07:20:04;13.13;;;5.82;;
76900;SDS011;65859;43.020;25.096;2023-04-25T07:22:33;6.25;;;4.18;;
76900;SDS011;65859;43.020;25.096;2023-04-25T07:25:00;4.30;;;3.80;;
76900;SDS011;65859;43.020;25.096;2023-04-25T07:27:26;5.63;;;3.92;;
76900;SDS011;65859;43.020;25.096;2023-04-25T07:29:53;6.30;;;3.70;;
76900;SDS011;65859;43.020;25.096;2023-04-25T07:32:19;4.55;;;3.47;;
76900;SDS011;65859;43.020;25.096;2023-04-25T07:34:45;5.80;;;4.10;;
76900;SDS011;65859;43.020;25.096;2023-04-25T07:37:12;5.55;;;3.90;;
76900;SDS011;65859;43.020;25.096;2023-04-25T07:39:39;6.97;;;4.32;;
76900;SDS011;65859;43.020;25.096;2023-04-25T07:42:06;6.22;;;3.15;;
76900;SDS011;65859;43.020;25.096;2023-04-25T07:44:35;8.57;;;4.00;;
76900;SDS011;65859;43.020;25.096;2023-04-25T07:47:07;7.95;;;3.63;;
76900;SDS011;65859;43.020;25.096;2023-04-25T07:49:34;4.90;;;4.10;;
76900;SDS011;65859;43.020;25.096;2023-04-25T07:52:01;7.20;;;3.53;;
76900;SDS011;65859;43.020;25.096;2023-04-25T07:54:28;8.18;;;3.33;;
76900;SDS011;65859;43.020;25.096;2023-04-25T07:56:55;3.75;;;2.13;;
76900;SDS011;65859;43.020;25.096;2023-04-25T07:59:22;2.95;;;1.92;;
76900;SDS011;65859;43.020;25.096;2023-04-25T08:01:48;2.45;;;1.63;;
76900;SDS011;65859;43.020;25.096;2023-04-25T08:04:15;4.60;;;2.33;;
76900;SDS011;65859;43.020;25.096;2023-04-25T08:06:42;5.57;;;2.08;;
76900;SDS011;65859;43.020;25.096;2023-04-25T08:09:08;4.13;;;2.40;;
76900;SDS011;65859;43.020;25.096;2023-04-25T08:11:35;2.20;;;2.00;;
76900;SDS011;65859;43.020;25.096;2023-04-25T08:14:02;4.80;;;2.05;;
76900;SDS011;65859;43.020;25.096;2023-04-25T08:16:28;4.20;;;1.90;;
76900;SDS011;65859;43.020;25.096;2023-04-25T08:18:56;6.03;;;3.00;;
76900;SDS011;65859;43.020;25.096;2023-04-25T08:21:24;3.17;;;2.40;;
76900;SDS011;65859;43.020;25.096;2023-04-25T08:23:52;4.75;;;2.95;;
76900;SDS011;65859;43.020;25.096;2023-04-25T08:26:18;3.92;;;2.00;;
76900;SDS011;65859;43.020;25.096;2023-04-25T08:28:45;3.42;;;2.00;;
76900;SDS011;65859;43.020;25.096;2023-04-25T08:31:12;5.60;;;2.22;;
76900;SDS011;65859;43.020;25.096;2023-04-25T08:33:38;6.95;;;2.60;;
76900;SDS011;65859;43.020;25.096;2023-04-25T08:36:04;4.60;;;3.30;;
76900;SDS011;65859;43.020;25.096;2023-04-25T08:38:31;13.25;;;3.35;;
76900;SDS011;65859;43.020;25.096;2023-04-25T08:40:57;10.25;;;3.60;;
76900;SDS011;65859;43.020;25.096;2023-04-25T08:43:29;10.02;;;3.30;;
76900;SDS011;65859;43.020;25.096;2023-04-25T08:45:58;5.90;;;2.20;;
76900;SDS011;65859;43.020;25.096;2023-04-25T08:48:28;6.70;;;2.60;;
76900;SDS011;65859;43.020;25.096;2023-04-25T08:51:02;3.17;;;2.00;;
76900;SDS011;65859;43.020;25.096;2023-04-25T08:53:32;3.10;;;2.30;;
76900;SDS011;65859;43.020;25.096;2023-04-25T08:56:00;6.82;;;3.50;;
76900;SDS011;65859;43.020;25.096;2023-04-25T08:58:27;7.28;;;3.17;;
76900;SDS011;65859;43.020;25.096;2023-04-25T09:00:54;5.18;;;3.17;;
76900;SDS011;65859;43.020;25.096;2023-04-25T09:03:20;8.90;;;4.65;;
76900;SDS011;65859;43.020;25.096;2023-04-25T09:05:47;6.75;;;3.72;;
76900;SDS011;65859;43.020;25.096;2023-04-25T09:08:15;6.32;;;3.90;;
76900;SDS011;65859;43.020;25.096;2023-04-25T09:10:42;5.95;;;3.40;;
76900;SDS011;65859;43.020;25.096;2023-04-25T09:13:12;4.10;;;2.88;;
76900;SDS011;65859;43.020;25.096;2023-04-25T09:15:46;3.47;;;3.10;;
76900;SDS011;65859;43.020;25.096;2023-04-25T09:18:21;4.20;;;3.20;;
76900;SDS011;65859;43.020;25.096;2023-04-25T09:20:55;6.90;;;3.28;;
76900;SDS011;65859;43.020;25.096;2023-04-25T09:25:52;13.98;;;5.90;;
76900;SDS011;65859;43.020;25.096;2023-04-25T09:28:25;5.10;;;3.40;;
76900;SDS011;65859;43.020;25.096;2023-04-25T09:30:56;8.93;;;3.90;;
76900;SDS011;65859;43.020;25.096;2023-04-25T09:33:29;9.43;;;4.25;;
76900;SDS011;65859;43.020;25.096;2023-04-25T09:36:07;5.50;;;3.13;;
76900;SDS011;65859;43.020;25.096;2023-04-25T09:38:41;4.80;;;2.63;;
76900;SDS011;65859;43.020;25.096;2023-04-25T09:41:09;4.78;;;2.95;;
76900;SDS011;65859;43.020;25.096;2023-04-25T09:43:36;5.22;;;2.95;;
76900;SDS011;65859;43.020;25.096;2023-04-25T09:46:08;6.20;;;2.97;;
76900;SDS011;65859;43.020;25.096;2023-04-25T09:48:36;7.78;;;3.70;;
76900;SDS011;65859;43.020;25.096;2023-04-25T09:53:38;7.43;;;4.65;;
76900;SDS011;65859;43.020;25.096;2023-04-25T09:56:09;5.07;;;2.85;;
76900;SDS011;65859;43.020;25.096;2023-04-25T09:58:37;10.23;;;3.85;;
76900;SDS011;65859;43.020;25.096;2023-04-25T10:01:09;5.13;;;3.20;;
76900;SDS011;65859;43.020;25.096;2023-04-25T10:03:39;3.95;;;2.72;;
76900;SDS011;65859;43.020;25.096;2023-04-25T10:06:07;6.03;;;1.77;;
76900;SDS011;65859;43.020;25.096;2023-04-25T10:08:37;4.30;;;1.80;;
76900;SDS011;65859;43.020;25.096;2023-04-25T10:11:04;1.70;;;1.60;;
76900;SDS011;65859;43.020;25.096;2023-04-25T10:13:32;2.42;;;1.83;;
76900;SDS011;65859;43.020;25.096;2023-04-25T10:16:00;2.97;;;1.77;;
76900;SDS011;65859;43.020;25.096;2023-04-25T10:18:28;2.72;;;2.10;;
76900;SDS011;65859;43.020;25.096;2023-04-25T10:21:00;3.45;;;1.70;;
76900;SDS011;65859;43.020;25.096;2023-04-25T10:23:27;1.80;;;1.70;;
76900;SDS011;65859;43.020;25.096;2023-04-25T10:25:57;3.45;;;1.52;;
76900;SDS011;65859;43.020;25.096;2023-04-25T10:28:24;3.42;;;2.30;;
76900;SDS011;65859;43.020;25.096;2023-04-25T10:33:34;3.72;;;1.85;;
76900;SDS011;65859;43.020;25.096;2023-04-25T10:36:15;2.50;;;1.70;;
76900;SDS011;65859;43.020;25.096;2023-04-25T10:38:44;3.10;;;1.80;;
76900;SDS011;65859;43.020;25.096;2023-04-25T10:41:11;2.38;;;2.00;;
76900;SDS011;65859;43.020;25.096;2023-04-25T10:43:42;3.75;;;2.08;;
76900;SDS011;65859;43.020;25.096;2023-04-25T10:46:12;2.95;;;1.95;;
76900;SDS011;65859;43.020;25.096;2023-04-25T10:48:53;3.72;;;1.48;;
76900;SDS011;65859;43.020;25.096;2023-04-25T10:51:21;2.63;;;1.80;;
76900;SDS011;65859;43.020;25.096;2023-04-25T10:56:23;3.60;;;2.00;;
76900;SDS011;65859;43.020;25.096;2023-04-25T10:59:05;4.60;;;2.53;;
76900;SDS011;65859;43.020;25.096;2023-04-25T11:01:37;5.43;;;1.70;;
76900;SDS011;65859;43.020;25.096;2023-04-25T11:07:02;3.47;;;1.95;;
76900;SDS011;65859;43.020;25.096;2023-04-25T11:09:51;4.20;;;1.92;;
76900;SDS011;65859;43.020;25.096;2023-04-25T11:12:18;3.47;;;1.92;;
76900;SDS011;65859;43.020;25.096;2023-04-25T11:14:44;4.63;;;2.20;;
76900;SDS011;65859;43.020;25.096;2023-04-25T11:17:11;5.15;;;2.53;;
76900;SDS011;65859;43.020;25.096;2023-04-25T11:19:37;2.40;;;2.13;;
76900;SDS011;65859;43.020;25.096;2023-04-25T11:22:03;1.67;;;1.58;;
76900;SDS011;65859;43.020;25.096;2023-04-25T11:24:31;3.17;;;2.20;;
76900;SDS011;65859;43.020;25.096;2023-04-25T11:27:03;3.05;;;1.90;;
76900;SDS011;65859;43.020;25.096;2023-04-25T11:29:31;2.28;;;1.98;;
76900;SDS011;65859;43.020;25.096;2023-04-25T11:31:58;2.47;;;1.65;;
76900;SDS011;65859;43.020;25.096;2023-04-25T11:34:29;3.97;;;2.08;;
76900;SDS011;65859;43.020;25.096;2023-04-25T11:36:57;4.05;;;3.08;;
76900;SDS011;65859;43.020;25.096;2023-04-25T11:39:25;6.85;;;3.92;;
76900;SDS011;65859;43.020;25.096;2023-04-25T11:41:52;5.90;;;5.05;;
76900;SDS011;65859;43.020;25.096;2023-04-25T11:44:19;4.95;;;3.10;;
76900;SDS011;65859;43.020;25.096;2023-04-25T11:46:46;7.70;;;4.68;;
76900;SDS011;65859;43.020;25.096;2023-04-25T11:49:13;8.88;;;5.10;;
76900;SDS011;65859;43.020;25.096;2023-04-25T11:51:40;6.57;;;4.65;;
76900;SDS011;65859;43.020;25.096;2023-04-25T11:54:08;6.88;;;4.30;;
76900;SDS011;65859;43.020;25.096;2023-04-25T11:56:35;5.25;;;3.70;;
76900;SDS011;65859;43.020;25.096;2023-04-25T11:59:03;4.70;;;3.33;;
76900;SDS011;65859;43.020;25.096;2023-04-25T12:01:31;4.57;;;3.65;;
76900;SDS011;65859;43.020;25.096;2023-04-25T12:04:12;8.63;;;4.18;;
76900;SDS011;65859;43.020;25.096;2023-04-25T12:06:40;16.70;;;6.20;;
76900;SDS011;65859;43.020;25.096;2023-04-25T12:09:09;22.52;;;10.65;;
76900;SDS011;65859;43.020;25.096;2023-04-25T12:11:41;18.20;;;7.85;;
76900;SDS011;65859;43.020;25.096;2023-04-25T12:14:10;11.07;;;7.13;;
76900;SDS011;65859;43.020;25.096;2023-04-25T12:16:41;8.95;;;5.70;;
76900;SDS011;65859;43.020;25.096;2023-04-25T12:19:08;9.68;;;8.10;;
76900;SDS011;65859;43.020;25.096;2023-04-25T12:21:35;9.15;;;5.47;;
76900;SDS011;65859;43.020;25.096;2023-04-25T12:24:09;5.25;;;4.68;;
76900;SDS011;65859;43.020;25.096;2023-04-25T12:26:50;7.57;;;5.45;;
76900;SDS011;65859;43.020;25.096;2023-04-25T12:29:31;8.75;;;4.70;;
76900;SDS011;65859;43.020;25.096;2023-04-25T12:31:59;17.63;;;11.40;;
76900;SDS011;65859;43.020;25.096;2023-04-25T12:34:29;25.90;;;19.98;;
76900;SDS011;65859;43.020;25.096;2023-04-25T12:36:57;30.40;;;21.27;;
76900;SDS011;65859;43.020;25.096;2023-04-25T12:39:24;17.33;;;13.32;;
76900;SDS011;65859;43.020;25.096;2023-04-25T12:41:51;14.13;;;10.48;;
76900;SDS011;65859;43.020;25.096;2023-04-25T12:44:19;13.73;;;11.00;;
76900;SDS011;65859;43.020;25.096;2023-04-25T12:46:46;9.48;;;7.80;;
76900;SDS011;65859;43.020;25.096;2023-04-25T12:49:13;16.42;;;12.20;;
76900;SDS011;65859;43.020;25.096;2023-04-25T12:51:39;9.82;;;7.55;;
76900;SDS011;65859;43.020;25.096;2023-04-25T12:54:06;10.40;;;8.00;;
76900;SDS011;65859;43.020;25.096;2023-04-25T12:56:34;11.10;;;5.80;;
76900;SDS011;65859;43.020;25.096;2023-04-25T12:59:01;4.38;;;3.33;;
76900;SDS011;65859;43.020;25.096;2023-04-25T13:01:29;8.88;;;3.25;;
76900;SDS011;65859;43.020;25.096;2023-04-25T13:03:55;3.15;;;2.30;;
76900;SDS011;65859;43.020;25.096;2023-04-25T13:06:22;4.15;;;2.92;;
76900;SDS011;65859;43.020;25.096;2023-04-25T13:08:48;4.75;;;2.58;;
76900;SDS011;65859;43.020;25.096;2023-04-25T13:11:15;3.50;;;3.20;;
76900;SDS011;65859;43.020;25.096;2023-04-25T13:13:41;5.30;;;2.75;;
76900;SDS011;65859;43.020;25.096;2023-04-25T13:16:08;3.42;;;2.70;;
76900;SDS011;65859;43.020;25.096;2023-04-25T13:18:35;4.07;;;2.80;;
76900;SDS011;65859;43.020;25.096;2023-04-25T13:21:01;5.82;;;4.00;;
76900;SDS011;65859;43.020;25.096;2023-04-25T13:23:28;4.90;;;2.47;;
76900;SDS011;65859;43.020;25.096;2023-04-25T13:25:56;2.40;;;2.20;;
76900;SDS011;65859;43.020;25.096;2023-04-25T13:28:26;2.63;;;2.40;;
76900;SDS011;65859;43.020;25.096;2023-04-25T13:30:52;4.82;;;3.10;;
76900;SDS011;65859;43.020;25.096;2023-04-25T13:33:20;2.75;;;2.22;;
76900;SDS011;65859;43.020;25.096;2023-04-25T13:35:47;3.75;;;2.70;;
76900;SDS011;65859;43.020;25.096;2023-04-25T13:38:22;5.20;;;3.83;;
76900;SDS011;65859;43.020;25.096;2023-04-25T13:40:51;5.28;;;4.47;;
76900;SDS011;65859;43.020;25.096;2023-04-25T13:43:19;3.20;;;2.90;;
76900;SDS011;65859;43.020;25.096;2023-04-25T13:45:46;6.03;;;2.88;;
76900;SDS011;65859;43.020;25.096;2023-04-25T13:48:13;4.72;;;1.67;;
76900;SDS011;65859;43.020;25.096;2023-04-25T13:50:40;6.07;;;1.95;;
76900;SDS011;65859;43.020;25.096;2023-04-25T13:53:06;8.30;;;1.95;;
76900;SDS011;65859;43.020;25.096;2023-04-25T13:55:33;11.02;;;3.00;;
76900;SDS011;65859;43.020;25.096;2023-04-25T13:58:03;5.68;;;1.90;;
76900;SDS011;65859;43.020;25.096;2023-04-25T14:00:33;6.55;;;2.50;;
76900;SDS011;65859;43.020;25.096;2023-04-25T14:03:02;5.55;;;1.70;;
76900;SDS011;65859;43.020;25.096;2023-04-25T14:05:34;12.32;;;4.00;;
76900;SDS011;65859;43.020;25.096;2023-04-25T14:08:04;7.80;;;3.05;;
76900;SDS011;65859;43.020;25.096;2023-04-25T14:10:34;4.82;;;1.33;;
76900;SDS011;65859;43.020;25.096;2023-04-25T14:13:01;3.45;;;1.70;;
76900;SDS011;65859;43.020;25.096;2023-04-25T14:15:31;3.63;;;1.60;;
76900;SDS011;65859;43.020;25.096;2023-04-25T14:18:03;5.70;;;3.45;;
76900;SDS011;65859;43.020;25.096;2023-04-25T14:20:30;3.67;;;2.53;;
76900;SDS011;65859;43.020;25.096;2023-04-25T14:22:57;7.40;;;3.95;;
76900;SDS011;65859;43.020;25.096;2023-04-25T14:25:24;4.07;;;1.83;;
76900;SDS011;65859;43.020;25.096;2023-04-25T14:27:50;7.75;;;4.00;;
76900;SDS011;65859;43.020;25.096;2023-04-25T14:30:17;5.65;;;3.50;;
76900;SDS011;65859;43.020;25.096;2023-04-25T14:32:44;3.60;;;2.83;;
76900;SDS011;65859;43.020;25.096;2023-04-25T14:35:11;3.50;;;1.42;;
76900;SDS011;65859;43.020;25.096;2023-04-25T14:37:39;77.65;;;64.97;;
76900;SDS011;65859;43.020;25.096;2023-04-25T14:40:06;25.67;;;18.92;;
76900;SDS011;65859;43.020;25.096;2023-04-25T14:42:38;8.52;;;6.50;;